LPMA/FNC METAR and TAF weather

Enter ICAO airport designator
Station Type Date Time Source
LPMA METAR 2021/09/27 07:30 UTC NOAA

LPMA 270730Z 35006KT 320V020 9999 FEW015 21/15 Q1024


Station Type Date Time Source
LPMA Decoded METAR 2021/09/27 07:30 UTC NOAA

Aeroporto Da Madeira, Portugal (LPMA) 32-41-52N 016-46-28W
Sep 27, 2021 - 03:30 AM EDT / 2021.09.27 0730 UTC
Wind: from the N (350 degrees) at 7 MPH (6 KT) (direction variable):0
Visibility: greater than 7 mile(s):0
Sky conditions: mostly clear
Temperature: 69 F (21 C)
Dew Point: 59 F (15 C)
Relative Humidity: 68%
Pressure (altimeter): 30.24 in. Hg (1024 hPa)
ob: LPMA 270730Z 35006KT 320V020 9999 FEW015 21/15 Q1024
cycle: 7

Station Type Date Time Source
LPMA TAF 2021/09/27 06:18 UTC NOAA

TAF LPMA 270500Z 2706/2806 VRB05KT 9999 SCT015
BECMG 2707/2709 03012KT
BECMG 2800/2803 36013KT

Example: see airport list